Time;durP1;ratioP1;P1;durP2;ratioP2;P2;SDS_P1;SDS_P2;PMS_P1;PMS_P2;Temp;Humidity;BMP_temperature;BMP_pressure;BME280_temperature;BME280_humidity;BME280_pressure;Samples;Min_cycle;Max_cycle;Signal;HPM_P1;HPM_P2
2023/05/15 00:01:28;;;;;;;1.98;1.83;;;;;;;;;;5021029;28;20111;-48
2023/05/15 00:03:53;;;;;;;1.95;1.85;;;;;;;;;;5024452;28;20470;-47
2023/05/15 00:06:19;;;;;;;1.95;1.80;;;;;;;;;;5024699;28;20064;-40
2023/05/15 00:08:45;;;;;;;1.85;1.75;;;;;;;;;;5026851;28;20065;-41
2023/05/15 00:11:10;;;;;;;1.98;1.80;;;;;;;;;;5026494;28;20037;-41
2023/05/15 00:13:37;;;;;;;7.38;2.08;;;;;;;;;;5020675;28;20052;-41
2023/05/15 00:16:06;;;;;;;2.03;1.92;;;;;;;;;;5029320;28;20072;-41
2023/05/15 00:18:32;;;;;;;6.10;1.90;;;;;;;;;;5026230;28;20039;-40
2023/05/15 00:20:58;;;;;;;3.75;2.05;;;;;;;;;;5023316;28;20449;-40
2023/05/15 00:23:23;;;;;;;2.83;2.00;;;;;;;;;;5024144;28;20032;-42
2023/05/15 00:25:48;;;;;;;5.90;2.25;;;;;;;;;;5022696;28;20041;-41
2023/05/15 00:28:14;;;;;;;2.03;1.92;;;;;;;;;;5028063;28;20060;-40
2023/05/15 00:30:39;;;;;;;1.98;1.80;;;;;;;;;;5022956;28;20092;-40
2023/05/15 00:33:05;;;;;;;1.98;1.88;;;;;;;;;;5023604;28;20034;-41
2023/05/15 00:35:31;;;;;;;2.75;2.40;;;;;;;;;;5024554;28;20117;-41
2023/05/15 00:37:56;;;;;;;4.38;2.03;;;;;;;;;;5022549;28;20129;-42
2023/05/15 00:40:23;;;;;;;2.53;2.25;;;;;;;;;;5024784;28;20057;-41
2023/05/15 00:42:50;;;;;;;2.33;2.22;;;;;;;;;;5021322;28;20109;-41
2023/05/15 00:45:15;;;;;;;6.65;2.30;;;;;;;;;;5024820;28;20056;-43
2023/05/15 00:47:42;;;;;;;2.30;2.17;;;;;;;;;;5024014;28;20073;-41
2023/05/15 00:50:08;;;;;;;2.40;2.20;;;;;;;;;;5020857;28;20068;-41
2023/05/15 00:52:35;;;;;;;2.30;2.20;;;;;;;;;;5026907;28;20040;-41
2023/05/15 00:55:01;;;;;;;2.88;2.47;;;;;;;;;;5026326;28;20482;-40
2023/05/15 00:57:26;;;;;;;3.53;2.20;;;;;;;;;;5023939;28;20068;-42
2023/05/15 00:59:53;;;;;;;2.30;2.10;;;;;;;;;;5023879;28;20107;-41
2023/05/15 01:02:18;;;;;;;2.88;2.30;;;;;;;;;;5025765;28;20108;-41
2023/05/15 01:04:44;;;;;;;5.22;2.60;;;;;;;;;;5024889;28;20038;-40
2023/05/15 01:07:10;;;;;;;2.78;2.58;;;;;;;;;;5026294;28;20456;-41
2023/05/15 01:09:37;;;;;;;2.45;2.25;;;;;;;;;;5024540;28;20029;-40
2023/05/15 01:12:04;;;;;;;4.55;2.60;;;;;;;;;;5023376;28;20124;-41
2023/05/15 01:14:29;;;;;;;2.35;2.25;;;;;;;;;;5025344;28;20065;-40
2023/05/15 01:16:55;;;;;;;2.30;2.20;;;;;;;;;;5025692;28;20459;-40
2023/05/15 01:19:20;;;;;;;3.10;2.72;;;;;;;;;;5025365;28;20068;-42
2023/05/15 01:22:15;;;;;;;2.58;2.38;;;;;;;;;;5023856;28;20057;-42
2023/05/15 01:25:10;;;;;;;11.95;2.70;;;;;;;;;;4961696;28;20039;-41
2023/05/15 01:27:46;;;;;;;2.58;2.38;;;;;;;;;;4962350;28;20420;-41
2023/05/15 01:30:19;;;;;;;3.63;2.03;;;;;;;;;;4965880;28;20454;-43
2023/05/15 01:33:02;;;;;;;2.50;2.17;;;;;;;;;;4962963;28;20042;-40
2023/05/15 01:35:42;;;;;;;2.78;2.58;;;;;;;;;;4963450;28;20046;-40
2023/05/15 01:38:20;;;;;;;5.15;2.47;;;;;;;;;;4962612;28;20158;-41
2023/05/15 01:40:48;;;;;;;2.72;2.53;;;;;;;;;;4960511;28;20087;-40
2023/05/15 01:43:20;;;;;;;2.92;2.60;;;;;;;;;;4964176;28;20031;-40
2023/05/15 01:45:46;;;;;;;6.70;2.70;;;;;;;;;;4962878;28;20043;-41
2023/05/15 01:48:12;;;;;;;3.00;2.47;;;;;;;;;;4962891;28;20054;-43
2023/05/15 01:50:39;;;;;;;4.68;2.60;;;;;;;;;;4962670;28;20256;-41
2023/05/15 01:53:07;;;;;;;2.83;2.63;;;;;;;;;;4964302;28;20085;-42
2023/05/15 01:55:33;;;;;;;4.07;2.80;;;;;;;;;;4961803;28;20041;-41
2023/05/15 01:58:00;;;;;;;2.88;2.67;;;;;;;;;;4961482;28;20063;-41
2023/05/15 02:00:25;;;;;;;4.03;2.53;;;;;;;;;;4967413;28;20028;-40
2023/05/15 02:02:52;;;;;;;3.13;2.75;;;;;;;;;;5023625;28;20075;-41
2023/05/15 02:05:18;;;;;;;6.32;3.20;;;;;;;;;;5020674;28;20042;-40
2023/05/15 02:07:44;;;;;;;3.40;2.78;;;;;;;;;;5025023;28;20034;-41
2023/05/15 02:10:11;;;;;;;3.03;2.83;;;;;;;;;;5022675;28;20030;-41
2023/05/15 02:12:41;;;;;;;3.28;2.97;;;;;;;;;;5022325;28;20430;-41
2023/05/15 02:15:08;;;;;;;2.80;2.53;;;;;;;;;;5025965;28;20121;-41
2023/05/15 02:17:34;;;;;;;2.95;2.75;;;;;;;;;;5023025;28;20087;-41
2023/05/15 02:19:59;;;;;;;3.00;2.50;;;;;;;;;;5025444;28;20041;-41
2023/05/15 02:22:25;;;;;;;2.90;2.60;;;;;;;;;;5021241;28;20364;-41
2023/05/15 02:24:50;;;;;;;2.60;2.40;;;;;;;;;;5025218;28;20512;-40
2023/05/15 02:27:23;;;;;;;8.20;2.90;;;;;;;;;;5017928;28;20034;-42
2023/05/15 02:30:00;;;;;;;4.00;2.80;;;;;;;;;;5024667;28;20533;-40
2023/05/15 02:32:44;;;;;;;4.70;2.80;;;;;;;;;;5017009;28;20041;-41
2023/05/15 02:35:35;;;;;;;2.63;2.42;;;;;;;;;;5019874;28;20044;-41
2023/05/15 02:38:05;;;;;;;5.63;2.70;;;;;;;;;;5017209;28;20052;-40
2023/05/15 02:40:34;;;;;;;2.83;2.63;;;;;;;;;;5021028;28;20087;-41
2023/05/15 02:43:00;;;;;;;2.63;2.50;;;;;;;;;;5021457;28;20021;-39
2023/05/15 02:45:25;;;;;;;4.60;2.78;;;;;;;;;;5023237;28;20104;-44
2023/05/15 02:47:52;;;;;;;3.05;2.65;;;;;;;;;;5018584;28;20056;-40
2023/05/15 02:50:17;;;;;;;3.13;2.80;;;;;;;;;;5020032;28;20120;-40
2023/05/15 02:52:43;;;;;;;3.15;2.85;;;;;;;;;;5019382;28;22202;-42
2023/05/15 02:55:09;;;;;;;3.63;3.28;;;;;;;;;;5023818;28;20063;-41
2023/05/15 02:57:34;;;;;;;2.90;2.65;;;;;;;;;;5023623;28;20099;-41
2023/05/15 03:00:00;;;;;;;3.75;2.97;;;;;;;;;;5023263;28;20060;-44
2023/05/15 03:02:26;;;;;;;4.07;3.10;;;;;;;;;;5019061;28;20034;-40
2023/05/15 03:04:51;;;;;;;3.75;2.88;;;;;;;;;;5021618;28;20034;-41
2023/05/15 03:07:16;;;;;;;2.90;2.70;;;;;;;;;;5020801;28;20052;-41
2023/05/15 03:09:42;;;;;;;2.83;2.63;;;;;;;;;;5018546;28;20029;-43
2023/05/15 03:12:08;;;;;;;4.65;2.85;;;;;;;;;;5018269;28;20375;-42
2023/05/15 03:14:33;;;;;;;6.25;3.00;;;;;;;;;;5016700;28;20044;-43
2023/05/15 03:16:59;;;;;;;4.15;3.55;;;;;;;;;;5015937;28;20034;-45
2023/05/15 03:19:25;;;;;;;3.40;3.17;;;;;;;;;;5020920;28;20029;-40
2023/05/15 03:21:50;;;;;;;3.20;2.90;;;;;;;;;;5022740;28;20041;-41
2023/05/15 03:24:15;;;;;;;5.93;3.22;;;;;;;;;;5019900;28;20035;-40
2023/05/15 03:26:41;;;;;;;4.05;3.33;;;;;;;;;;5019311;28;20045;-42
2023/05/15 03:29:07;;;;;;;3.67;3.38;;;;;;;;;;5025494;28;20128;-42
2023/05/15 03:31:32;;;;;;;3.65;3.35;;;;;;;;;;5021704;28;20043;-41
2023/05/15 03:33:58;;;;;;;4.45;3.35;;;;;;;;;;5023936;28;20775;-41
2023/05/15 03:36:23;;;;;;;3.58;3.28;;;;;;;;;;5018230;28;20450;-40
2023/05/15 03:38:48;;;;;;;4.93;3.47;;;;;;;;;;5023247;28;20021;-41
2023/05/15 03:41:14;;;;;;;4.00;3.60;;;;;;;;;;5021065;28;20038;-40
2023/05/15 03:43:39;;;;;;;3.80;3.50;;;;;;;;;;5019199;28;20083;-41
2023/05/15 03:46:05;;;;;;;5.85;3.88;;;;;;;;;;5022438;28;20506;-41
2023/05/15 03:48:30;;;;;;;4.97;3.60;;;;;;;;;;5022067;28;20112;-41
2023/05/15 03:50:55;;;;;;;4.10;3.80;;;;;;;;;;5024629;28;20065;-40
2023/05/15 03:53:21;;;;;;;8.35;3.67;;;;;;;;;;5023908;28;20033;-40
2023/05/15 03:55:46;;;;;;;5.57;4.00;;;;;;;;;;5020176;28;20060;-40
2023/05/15 03:58:12;;;;;;;5.18;3.80;;;;;;;;;;5019814;28;20140;-41
2023/05/15 04:00:37;;;;;;;4.10;3.80;;;;;;;;;;5022359;28;20458;-41
2023/05/15 04:03:03;;;;;;;4.68;4.25;;;;;;;;;;5023044;28;20041;-40
2023/05/15 04:05:28;;;;;;;4.20;3.83;;;;;;;;;;5021041;28;20513;-42
2023/05/15 04:07:53;;;;;;;5.38;4.88;;;;;;;;;;5013983;28;20113;-40
2023/05/15 04:10:19;;;;;;;6.53;4.70;;;;;;;;;;5024252;28;20386;-41
2023/05/15 04:12:44;;;;;;;4.60;4.15;;;;;;;;;;5017805;28;20027;-42
2023/05/15 04:15:20;;;;;;;5.50;4.93;;;;;;;;;;5017870;28;20549;-41
2023/05/15 04:17:47;;;;;;;6.20;4.70;;;;;;;;;;5022117;28;20053;-41
2023/05/15 04:20:14;;;;;;;5.53;4.60;;;;;;;;;;5023457;28;20433;-40
2023/05/15 04:22:41;;;;;;;8.85;4.32;;;;;;;;;;5019527;28;20057;-42
2023/05/15 04:25:08;;;;;;;6.70;4.88;;;;;;;;;;5020278;28;20026;-42
2023/05/15 04:27:33;;;;;;;9.27;4.78;;;;;;;;;;5019961;28;20699;-42
2023/05/15 04:29:59;;;;;;;5.15;4.55;;;;;;;;;;5023179;28;20029;-41
2023/05/15 04:32:26;;;;;;;6.18;5.03;;;;;;;;;;5018199;28;20033;-41
2023/05/15 04:34:52;;;;;;;5.30;4.80;;;;;;;;;;5020260;28;20025;-41
2023/05/15 04:37:17;;;;;;;5.10;4.72;;;;;;;;;;5020928;28;20040;-44
2023/05/15 04:39:42;;;;;;;6.70;5.85;;;;;;;;;;5023478;28;20030;-41
2023/05/15 04:42:08;;;;;;;6.70;4.53;;;;;;;;;;5024317;28;20041;-41
2023/05/15 04:44:33;;;;;;;5.43;4.93;;;;;;;;;;5027662;28;20447;-42
2023/05/15 04:46:58;;;;;;;5.53;4.85;;;;;;;;;;5020103;28;20092;-43
2023/05/15 04:49:25;;;;;;;6.03;5.43;;;;;;;;;;5020864;28;20033;-45
2023/05/15 04:51:50;;;;;;;7.18;6.00;;;;;;;;;;5025239;28;20048;-40
2023/05/15 04:54:15;;;;;;;5.88;5.38;;;;;;;;;;5028111;28;20029;-40
2023/05/15 04:56:41;;;;;;;8.38;5.82;;;;;;;;;;5024865;28;20068;-45
2023/05/15 04:59:06;;;;;;;13.60;5.60;;;;;;;;;;5026215;28;20042;-47
2023/05/15 05:01:31;;;;;;;7.55;6.38;;;;;;;;;;5023630;28;20046;-44
2023/05/15 05:03:57;;;;;;;5.78;5.28;;;;;;;;;;5018843;28;20064;-41
2023/05/15 05:06:23;;;;;;;5.70;5.10;;;;;;;;;;5026379;28;20042;-40
2023/05/15 05:08:48;;;;;;;6.15;5.57;;;;;;;;;;5012710;28;20600;-40
2023/05/15 05:11:15;;;;;;;5.72;5.20;;;;;;;;;;5018709;28;20112;-45
2023/05/15 05:13:41;;;;;;;8.00;5.25;;;;;;;;;;5022354;28;20030;-42
2023/05/15 05:16:07;;;;;;;6.35;4.68;;;;;;;;;;5020761;28;20529;-42
2023/05/15 05:18:33;;;;;;;6.30;4.70;;;;;;;;;;5024034;28;20029;-41
2023/05/15 05:21:02;;;;;;;8.35;4.63;;;;;;;;;;5024286;28;20124;-44
2023/05/15 05:23:29;;;;;;;6.25;4.93;;;;;;;;;;5020309;28;20037;-40
2023/05/15 05:25:55;;;;;;;6.93;4.80;;;;;;;;;;5019407;28;20041;-40
2023/05/15 05:28:21;;;;;;;6.95;4.93;;;;;;;;;;5021529;28;20389;-41
2023/05/15 05:30:47;;;;;;;12.50;4.72;;;;;;;;;;5020961;28;20042;-41
2023/05/15 05:33:12;;;;;;;5.28;4.72;;;;;;;;;;5019848;28;20113;-41
2023/05/15 05:35:38;;;;;;;6.55;4.30;;;;;;;;;;5017616;28;20121;-41
2023/05/15 05:38:03;;;;;;;5.57;4.90;;;;;;;;;;5022410;28;20083;-40
2023/05/15 05:40:29;;;;;;;4.70;4.28;;;;;;;;;;5018855;28;20025;-43
2023/05/15 05:42:59;;;;;;;4.95;4.50;;;;;;;;;;5022273;28;20045;-41
2023/05/15 05:45:24;;;;;;;4.20;3.90;;;;;;;;;;5023535;28;20041;-39
2023/05/15 05:47:49;;;;;;;6.82;4.28;;;;;;;;;;5023006;28;20021;-44
2023/05/15 05:50:15;;;;;;;7.60;4.82;;;;;;;;;;5021971;28;20037;-40
2023/05/15 05:52:40;;;;;;;5.28;4.75;;;;;;;;;;5022579;28;20125;-41
2023/05/15 05:55:06;;;;;;;5.85;4.68;;;;;;;;;;5018002;28;22354;-40
2023/05/15 05:57:31;;;;;;;4.93;4.50;;;;;;;;;;5024522;28;20030;-44
2023/05/15 05:59:57;;;;;;;7.75;4.30;;;;;;;;;;5024177;28;20045;-40
2023/05/15 06:02:23;;;;;;;4.68;4.28;;;;;;;;;;5022990;28;20121;-42
2023/05/15 06:04:48;;;;;;;5.07;4.57;;;;;;;;;;5025115;28;20464;-41
2023/05/15 06:07:14;;;;;;;8.98;7.60;;;;;;;;;;5019425;28;20451;-42
2023/05/15 06:09:39;;;;;;;4.93;4.15;;;;;;;;;;5017214;28;20029;-41
2023/05/15 06:12:07;;;;;;;5.65;4.68;;;;;;;;;;5022158;28;20049;-42
2023/05/15 06:14:32;;;;;;;5.57;4.15;;;;;;;;;;5023439;28;20063;-41
2023/05/15 06:16:58;;;;;;;6.07;4.20;;;;;;;;;;5022743;28;20080;-41
2023/05/15 06:19:23;;;;;;;5.32;4.35;;;;;;;;;;5025772;28;20026;-41
2023/05/15 06:21:48;;;;;;;4.38;3.97;;;;;;;;;;5018592;28;20115;-42
2023/05/15 06:24:14;;;;;;;4.90;4.50;;;;;;;;;;5016004;28;20037;-41
2023/05/15 06:26:39;;;;;;;4.30;3.90;;;;;;;;;;5020577;28;20040;-41
2023/05/15 06:29:05;;;;;;;4.57;3.80;;;;;;;;;;5022917;28;20478;-41
2023/05/15 06:31:30;;;;;;;7.47;3.83;;;;;;;;;;5021179;28;20486;-41
2023/05/15 06:33:55;;;;;;;10.80;3.78;;;;;;;;;;5016883;28;20087;-43
2023/05/15 06:36:21;;;;;;;5.30;3.70;;;;;;;;;;5019030;28;20045;-46
2023/05/15 06:38:46;;;;;;;4.15;3.78;;;;;;;;;;5022049;28;20502;-41
2023/05/15 06:41:11;;;;;;;3.90;3.60;;;;;;;;;;5022738;28;20041;-41
2023/05/15 06:43:37;;;;;;;6.47;3.60;;;;;;;;;;5019807;28;20135;-43
2023/05/15 06:46:02;;;;;;;4.57;4.15;;;;;;;;;;5021323;28;20049;-43
2023/05/15 06:48:28;;;;;;;5.13;3.80;;;;;;;;;;5024793;28;20120;-42
2023/05/15 06:50:53;;;;;;;11.70;3.50;;;;;;;;;;5019303;28;20068;-42
2023/05/15 06:53:19;;;;;;;6.38;3.50;;;;;;;;;;5021647;28;20065;-40
2023/05/15 06:55:45;;;;;;;3.70;3.40;;;;;;;;;;5019447;28;20120;-41
2023/05/15 06:58:10;;;;;;;5.57;3.65;;;;;;;;;;5021784;28;20124;-41
2023/05/15 07:00:36;;;;;;;3.50;3.20;;;;;;;;;;5020999;28;20524;-42
2023/05/15 07:03:01;;;;;;;8.68;3.50;;;;;;;;;;5020404;28;20037;-44
2023/05/15 07:05:26;;;;;;;4.72;3.60;;;;;;;;;;5021606;28;20061;-43
2023/05/15 07:07:52;;;;;;;4.47;3.50;;;;;;;;;;5024088;28;20056;-41
2023/05/15 07:10:17;;;;;;;3.55;3.25;;;;;;;;;;5022180;28;20037;-43
2023/05/15 07:12:43;;;;;;;3.65;3.30;;;;;;;;;;5021749;28;20045;-41
2023/05/15 07:15:09;;;;;;;5.18;3.65;;;;;;;;;;5026364;28;20029;-42
2023/05/15 07:17:34;;;;;;;6.28;3.55;;;;;;;;;;5023909;28;20437;-44
2023/05/15 07:20:00;;;;;;;4.22;3.25;;;;;;;;;;5020050;28;20045;-42
2023/05/15 07:22:28;;;;;;;6.90;3.25;;;;;;;;;;5021836;28;20060;-46
2023/05/15 07:24:53;;;;;;;5.35;3.55;;;;;;;;;;5020246;28;20104;-44
2023/05/15 07:27:19;;;;;;;4.25;3.85;;;;;;;;;;5022836;28;20583;-44
2023/05/15 07:29:44;;;;;;;7.13;3.53;;;;;;;;;;5021384;28;20559;-46
2023/05/15 07:32:10;;;;;;;6.40;4.18;;;;;;;;;;5021598;28;20064;-45
2023/05/15 07:34:35;;;;;;;4.68;3.55;;;;;;;;;;5021694;28;20355;-41
2023/05/15 07:37:01;;;;;;;11.68;3.72;;;;;;;;;;5018280;28;20090;-45
2023/05/15 07:39:26;;;;;;;10.10;3.80;;;;;;;;;;5023838;28;20034;-44
2023/05/15 07:41:52;;;;;;;4.30;3.78;;;;;;;;;;5021847;28;20089;-45
2023/05/15 07:44:17;;;;;;;5.90;3.63;;;;;;;;;;5021334;28;20033;-41
2023/05/15 07:46:44;;;;;;;4.72;3.80;;;;;;;;;;5020600;28;20499;-41
2023/05/15 07:49:09;;;;;;;10.10;4.18;;;;;;;;;;5022329;28;20026;-44
2023/05/15 07:51:35;;;;;;;6.53;3.30;;;;;;;;;;5021565;28;20762;-48
2023/05/15 07:54:02;;;;;;;3.50;3.20;;;;;;;;;;5020004;28;20112;-43
2023/05/15 07:56:28;;;;;;;6.93;3.70;;;;;;;;;;5016565;28;20034;-46
2023/05/15 07:58:53;;;;;;;5.10;3.40;;;;;;;;;;5017223;28;20042;-46
2023/05/15 08:01:19;;;;;;;4.38;3.70;;;;;;;;;;5015594;28;20045;-46
2023/05/15 08:03:44;;;;;;;5.63;3.78;;;;;;;;;;5019616;28;20033;-45
2023/05/15 08:06:10;;;;;;;6.65;3.80;;;;;;;;;;5022873;28;20045;-41
2023/05/15 08:08:35;;;;;;;3.90;3.55;;;;;;;;;;5020009;28;20112;-42
2023/05/15 08:11:00;;;;;;;5.35;3.38;;;;;;;;;;5018989;28;20043;-44
2023/05/15 08:13:26;;;;;;;3.63;3.40;;;;;;;;;;5025639;28;20021;-41
2023/05/15 08:15:51;;;;;;;7.28;3.78;;;;;;;;;;5020862;28;20041;-45
2023/05/15 08:18:17;;;;;;;5.75;3.47;;;;;;;;;;5028475;28;20029;-49
2023/05/15 08:20:42;;;;;;;7.07;3.70;;;;;;;;;;5022555;28;20041;-47
2023/05/15 08:23:07;;;;;;;4.95;3.53;;;;;;;;;;5024233;28;20041;-46
2023/05/15 08:25:33;;;;;;;4.55;3.17;;;;;;;;;;5026073;28;20028;-42
2023/05/15 08:27:58;;;;;;;5.47;3.50;;;;;;;;;;5025169;28;20044;-49
2023/05/15 08:30:24;;;;;;;3.33;3.13;;;;;;;;;;5020542;28;20390;-46
2023/05/15 08:32:49;;;;;;;7.07;3.50;;;;;;;;;;5027856;28;20029;-43
2023/05/15 08:35:15;;;;;;;4.32;3.30;;;;;;;;;;5026368;28;20080;-42
2023/05/15 08:37:40;;;;;;;3.65;2.95;;;;;;;;;;5025720;28;20041;-41
2023/05/15 08:40:09;;;;;;;5.35;3.20;;;;;;;;;;5025734;28;20029;-50
2023/05/15 08:42:39;;;;;;;9.20;3.42;;;;;;;;;;5023866;28;20026;-45
2023/05/15 08:45:06;;;;;;;3.35;3.15;;;;;;;;;;5024535;28;20030;-45
2023/05/15 08:47:37;;;;;;;4.30;3.47;;;;;;;;;;5018477;28;20042;-42
2023/05/15 08:50:07;;;;;;;7.35;3.30;;;;;;;;;;5026366;28;20044;-48
2023/05/15 08:52:33;;;;;;;5.45;3.92;;;;;;;;;;5021067;28;20461;-49
2023/05/15 08:54:59;;;;;;;4.72;4.10;;;;;;;;;;5020797;28;20033;-49
2023/05/15 08:57:27;;;;;;;5.50;3.63;;;;;;;;;;5023442;28;20025;-43
2023/05/15 08:59:53;;;;;;;10.18;3.67;;;;;;;;;;5023128;28;20490;-44
2023/05/15 09:02:19;;;;;;;4.65;3.58;;;;;;;;;;5023433;28;20049;-43
2023/05/15 09:04:45;;;;;;;10.05;4.18;;;;;;;;;;5026197;28;20026;-47
2023/05/15 09:07:10;;;;;;;4.63;4.22;;;;;;;;;;5022769;28;20584;-50
2023/05/15 09:09:38;;;;;;;3.75;3.50;;;;;;;;;;5024499;28;20112;-50
2023/05/15 09:12:05;;;;;;;8.32;3.95;;;;;;;;;;5026977;28;20079;-42
2023/05/15 09:14:31;;;;;;;4.80;3.90;;;;;;;;;;5020846;28;20033;-46
2023/05/15 09:16:56;;;;;;;6.43;4.00;;;;;;;;;;5024597;28;20048;-44
2023/05/15 09:19:22;;;;;;;7.25;4.50;;;;;;;;;;5025789;28;20041;-42
2023/05/15 09:21:48;;;;;;;4.93;4.15;;;;;;;;;;5020677;28;20528;-48
2023/05/15 09:24:27;;;;;;;4.43;4.10;;;;;;;;;;5024803;28;20037;-43
2023/05/15 09:27:08;;;;;;;3.88;3.53;;;;;;;;;;5026496;28;20034;-45
2023/05/15 09:29:35;;;;;;;15.45;4.30;;;;;;;;;;5021091;28;20047;-48
2023/05/15 09:32:07;;;;;;;5.32;3.35;;;;;;;;;;5024156;28;20079;-44
2023/05/15 09:34:34;;;;;;;6.10;3.90;;;;;;;;;;5025418;28;20021;-47
2023/05/15 09:37:01;;;;;;;6.75;4.50;;;;;;;;;;5021099;28;20077;-49
2023/05/15 09:39:27;;;;;;;18.23;4.30;;;;;;;;;;5025251;28;20052;-48
2023/05/15 09:41:53;;;;;;;6.10;4.25;;;;;;;;;;5023287;28;20453;-46
2023/05/15 09:44:27;;;;;;;5.32;3.58;;;;;;;;;;5023553;28;20037;-47
2023/05/15 09:46:52;;;;;;;4.13;3.80;;;;;;;;;;5024221;28;20486;-46
2023/05/15 09:49:18;;;;;;;4.50;4.10;;;;;;;;;;5022290;28;20033;-44
2023/05/15 09:51:45;;;;;;;4.95;4.47;;;;;;;;;;5022317;28;20038;-45
2023/05/15 09:54:15;;;;;;;4.65;4.20;;;;;;;;;;5017663;28;20029;-45
2023/05/15 09:56:46;;;;;;;9.48;5.00;;;;;;;;;;5024392;28;20033;-42
2023/05/15 09:59:17;;;;;;;4.82;4.40;;;;;;;;;;5024055;28;20054;-50
2023/05/15 10:01:44;;;;;;;6.55;4.47;;;;;;;;;;5024307;28;20035;-45
2023/05/15 10:04:11;;;;;;;9.20;4.60;;;;;;;;;;5020053;28;20108;-46
2023/05/15 10:06:44;;;;;;;7.40;4.47;;;;;;;;;;5023516;28;20038;-43
2023/05/15 10:09:11;;;;;;;4.97;4.47;;;;;;;;;;5018795;28;20115;-43
2023/05/15 10:11:39;;;;;;;4.60;4.20;;;;;;;;;;5022237;28;20045;-43
2023/05/15 10:14:05;;;;;;;9.45;4.00;;;;;;;;;;5022883;28;20905;-46
2023/05/15 10:16:35;;;;;;;5.93;4.05;;;;;;;;;;5021017;28;20542;-42
2023/05/15 10:19:08;;;;;;;4.88;3.90;;;;;;;;;;5026058;28;20085;-48
2023/05/15 10:21:36;;;;;;;5.72;4.60;;;;;;;;;;5018344;28;20030;-42
2023/05/15 10:24:03;;;;;;;5.93;4.55;;;;;;;;;;5021430;28;20021;-42
2023/05/15 10:26:41;;;;;;;7.63;4.22;;;;;;;;;;5020307;28;20128;-42
2023/05/15 10:29:12;;;;;;;4.95;4.10;;;;;;;;;;5024274;28;20108;-44
2023/05/15 10:31:41;;;;;;;10.38;3.97;;;;;;;;;;5019710;28;20037;-43
2023/05/15 10:34:08;;;;;;;3.90;3.58;;;;;;;;;;5023356;28;20076;-42
2023/05/15 10:36:35;;;;;;;6.38;3.30;;;;;;;;;;5024100;28;20030;-43
2023/05/15 10:39:02;;;;;;;4.55;3.90;;;;;;;;;;5023802;28;20041;-44
2023/05/15 10:41:29;;;;;;;6.18;4.07;;;;;;;;;;5025030;28;20056;-47
2023/05/15 10:43:59;;;;;;;9.02;4.50;;;;;;;;;;5022525;28;20514;-44
2023/05/15 10:46:26;;;;;;;5.13;4.18;;;;;;;;;;5023203;28;20080;-43
2023/05/15 10:48:52;;;;;;;6.03;4.05;;;;;;;;;;5022626;28;20601;-44
2023/05/15 10:51:27;;;;;;;8.05;4.50;;;;;;;;;;5017175;28;20141;-42
2023/05/15 10:53:53;;;;;;;6.05;4.15;;;;;;;;;;5023912;28;20095;-44
2023/05/15 10:56:20;;;;;;;3.95;3.55;;;;;;;;;;5020497;28;20041;-43
2023/05/15 10:58:49;;;;;;;6.43;4.10;;;;;;;;;;5020355;28;20053;-43
2023/05/15 11:01:30;;;;;;;4.93;3.47;;;;;;;;;;5019734;28;20071;-43
2023/05/15 11:04:11;;;;;;;7.45;4.10;;;;;;;;;;5018888;28;20034;-44
2023/05/15 11:06:38;;;;;;;6.47;3.47;;;;;;;;;;5022300;28;20034;-43
2023/05/15 11:09:24;;;;;;;10.00;4.00;;;;;;;;;;5024020;28;20033;-43
2023/05/15 11:11:57;;;;;;;6.20;3.70;;;;;;;;;;5022584;28;20053;-43
2023/05/15 11:14:23;;;;;;;3.75;3.40;;;;;;;;;;5018228;28;20394;-43
2023/05/15 11:16:52;;;;;;;5.95;3.55;;;;;;;;;;5020875;28;20049;-43
2023/05/15 11:19:56;;;;;;;6.07;3.83;;;;;;;;;;5019223;28;20033;-45
2023/05/15 11:22:43;;;;;;;4.35;3.67;;;;;;;;;;5019006;28;20065;-45
2023/05/15 11:25:13;;;;;;;5.70;4.00;;;;;;;;;;5023096;28;20026;-44
2023/05/15 11:27:44;;;;;;;5.88;4.03;;;;;;;;;;5018322;28;20040;-52
2023/05/15 11:30:16;;;;;;;;;;;;;;;;;;5022298;28;20057;-43
2023/05/15 11:32:49;;;;;;;14.25;5.70;;;;;;;;;;5011233;28;19929;-49
2023/05/15 11:35:25;;;;;;;6.70;4.75;;;;;;;;;;5021094;28;20032;-45
2023/05/15 11:37:55;;;;;;;8.43;4.32;;;;;;;;;;5012287;28;20049;-46
2023/05/15 11:40:22;;;;;;;11.88;4.53;;;;;;;;;;5018278;28;20044;-44
2023/05/15 11:43:17;;;;;;;4.50;3.58;;;;;;;;;;5013625;28;20088;-47
2023/05/15 11:45:47;;;;;;;4.07;3.55;;;;;;;;;;5018634;28;20545;-45
2023/05/15 11:48:14;;;;;;;3.95;3.45;;;;;;;;;;5026442;28;20152;-44
2023/05/15 11:50:40;;;;;;;5.13;3.95;;;;;;;;;;5025572;28;20034;-42
2023/05/15 11:53:08;;;;;;;4.22;3.30;;;;;;;;;;5029450;28;20532;-43
2023/05/15 11:55:36;;;;;;;3.83;3.53;;;;;;;;;;5029568;28;20036;-41
2023/05/15 11:58:03;;;;;;;3.97;3.60;;;;;;;;;;5025064;28;20021;-41
2023/05/15 12:00:28;;;;;;;7.78;4.05;;;;;;;;;;5027841;28;20466;-41
2023/05/15 12:02:54;;;;;;;5.68;3.58;;;;;;;;;;5029422;28;20061;-42
2023/05/15 12:05:19;;;;;;;3.95;3.50;;;;;;;;;;5022639;28;20391;-41
2023/05/15 12:07:45;;;;;;;5.75;4.03;;;;;;;;;;5027006;28;20120;-44
2023/05/15 12:10:11;;;;;;;7.82;3.78;;;;;;;;;;5023483;28;20108;-41
2023/05/15 12:12:41;;;;;;;15.10;4.95;;;;;;;;;;5022753;28;20041;-40
2023/05/15 12:15:11;;;;;;;10.68;4.50;;;;;;;;;;5029400;28;20033;-41
2023/05/15 12:17:38;;;;;;;8.90;4.20;;;;;;;;;;5024067;28;20052;-43
2023/05/15 12:20:07;;;;;;;12.00;4.57;;;;;;;;;;5022929;28;20030;-44
2023/05/15 12:22:41;;;;;;;5.38;3.60;;;;;;;;;;5024673;28;20132;-42
2023/05/15 12:25:07;;;;;;;4.72;3.80;;;;;;;;;;5028547;28;20024;-47
2023/05/15 12:27:34;;;;;;;8.20;4.07;;;;;;;;;;5028130;28;20036;-40
2023/05/15 12:30:00;;;;;;;9.13;4.50;;;;;;;;;;5027995;28;20564;-40
2023/05/15 12:32:26;;;;;;;4.28;3.63;;;;;;;;;;5026381;28;20044;-41
2023/05/15 12:34:52;;;;;;;5.70;3.33;;;;;;;;;;5021368;28;20101;-41
2023/05/15 12:37:22;;;;;;;5.13;3.95;;;;;;;;;;5029414;28;20041;-42
2023/05/15 12:39:53;;;;;;;5.63;4.05;;;;;;;;;;5030766;28;20029;-42
2023/05/15 12:42:18;;;;;;;5.30;3.93;;;;;;;;;;5028351;28;20252;-42
2023/05/15 12:44:44;;;;;;;5.85;3.63;;;;;;;;;;5030847;28;20478;-42
2023/05/15 12:47:14;;;;;;;7.18;3.63;;;;;;;;;;5027166;28;20069;-44
2023/05/15 12:49:40;;;;;;;4.82;3.30;;;;;;;;;;5028788;28;20033;-41
2023/05/15 12:52:09;;;;;;;6.60;3.70;;;;;;;;;;5024732;28;20060;-44
2023/05/15 12:54:42;;;;;;;4.03;3.63;;;;;;;;;;5026347;28;20052;-41
2023/05/15 12:57:08;;;;;;;4.20;3.70;;;;;;;;;;5027960;28;20112;-42
2023/05/15 12:59:34;;;;;;;3.70;3.40;;;;;;;;;;5025938;28;20617;-42
2023/05/15 13:01:59;;;;;;;4.93;4.03;;;;;;;;;;5026873;28;20080;-43
2023/05/15 13:04:24;;;;;;;3.67;3.22;;;;;;;;;;5024646;28;20505;-42
2023/05/15 13:06:51;;;;;;;8.40;4.03;;;;;;;;;;5022420;28;20072;-45
2023/05/15 13:09:21;;;;;;;3.88;3.47;;;;;;;;;;5018103;28;20105;-46
2023/05/15 13:11:47;;;;;;;6.95;3.75;;;;;;;;;;5021158;28;20029;-44
2023/05/15 13:14:16;;;;;;;7.53;4.00;;;;;;;;;;5020331;28;20040;-47
2023/05/15 13:16:42;;;;;;;9.70;3.63;;;;;;;;;;5018660;28;20037;-48
2023/05/15 13:19:08;;;;;;;11.43;3.42;;;;;;;;;;5025932;28;20060;-44
2023/05/15 13:21:34;;;;;;;9.02;3.40;;;;;;;;;;5025375;28;20494;-43
2023/05/15 13:23:59;;;;;;;5.43;3.92;;;;;;;;;;5025920;28;20033;-44
2023/05/15 13:26:25;;;;;;;10.10;4.28;;;;;;;;;;5024811;28;20045;-43
2023/05/15 13:28:50;;;;;;;5.47;3.10;;;;;;;;;;5024329;28;20060;-44
2023/05/15 13:31:16;;;;;;;4.68;3.30;;;;;;;;;;5023633;28;20426;-41
2023/05/15 13:33:41;;;;;;;3.53;3.22;;;;;;;;;;5020529;28;20053;-50
2023/05/15 13:36:07;;;;;;;4.20;3.63;;;;;;;;;;5024865;28;20039;-47
2023/05/15 13:38:33;;;;;;;4.32;3.03;;;;;;;;;;5021569;28;20389;-41
2023/05/15 13:40:58;;;;;;;5.57;3.05;;;;;;;;;;5023204;28;20034;-40
2023/05/15 13:43:23;;;;;;;6.78;3.53;;;;;;;;;;5019929;28;20108;-43
2023/05/15 13:45:49;;;;;;;3.90;3.30;;;;;;;;;;5024432;28;20037;-42
2023/05/15 13:48:15;;;;;;;5.45;3.55;;;;;;;;;;5020492;28;20023;-44
2023/05/15 13:50:42;;;;;;;4.60;3.50;;;;;;;;;;5022238;28;20572;-41
2023/05/15 13:53:07;;;;;;;7.05;3.30;;;;;;;;;;5022013;28;20041;-41
2023/05/15 13:55:33;;;;;;;7.90;3.05;;;;;;;;;;5019784;28;20022;-42
2023/05/15 13:57:59;;;;;;;4.85;3.38;;;;;;;;;;5023320;28;20121;-41
2023/05/15 14:00:25;;;;;;;5.13;3.42;;;;;;;;;;5025546;28;20065;-41
2023/05/15 14:02:50;;;;;;;11.95;3.67;;;;;;;;;;5022158;28;20058;-45
2023/05/15 14:05:16;;;;;;;3.40;3.10;;;;;;;;;;5018063;28;20140;-39
2023/05/15 14:07:42;;;;;;;3.50;3.20;;;;;;;;;;5019118;28;20033;-43
2023/05/15 14:10:08;;;;;;;6.28;3.40;;;;;;;;;;5020570;28;20025;-42
2023/05/15 14:12:35;;;;;;;13.50;3.58;;;;;;;;;;5018122;28;20116;-42
2023/05/15 14:15:00;;;;;;;5.00;3.10;;;;;;;;;;5024892;28;20037;-42
2023/05/15 14:17:26;;;;;;;3.53;3.10;;;;;;;;;;5019883;28;20044;-44
2023/05/15 14:19:52;;;;;;;10.75;3.10;;;;;;;;;;5021521;28;20081;-42
2023/05/15 14:22:17;;;;;;;4.55;3.38;;;;;;;;;;5022538;28;20516;-42
2023/05/15 14:24:43;;;;;;;8.48;3.30;;;;;;;;;;5020321;28;20032;-43
2023/05/15 14:27:08;;;;;;;5.03;2.90;;;;;;;;;;5023933;28;20034;-42
2023/05/15 14:29:34;;;;;;;16.35;3.88;;;;;;;;;;5024051;28;20038;-42
2023/05/15 14:32:00;;;;;;;3.95;3.00;;;;;;;;;;5021716;28;20419;-43
2023/05/15 14:34:25;;;;;;;3.22;2.92;;;;;;;;;;5021692;28;20022;-48
2023/05/15 14:36:50;;;;;;;5.65;2.97;;;;;;;;;;5020646;28;20052;-41
2023/05/15 14:39:17;;;;;;;3.95;3.25;;;;;;;;;;5025238;28;20059;-43
2023/05/15 14:41:42;;;;;;;3.95;3.20;;;;;;;;;;5018809;28;20134;-41
2023/05/15 14:44:08;;;;;;;8.40;3.20;;;;;;;;;;5019464;28;20477;-43